sensor_id;sensor_type;location;lat;lon;timestamp;pressure;altitude;pressure_sealevel;temperature;humidity
19748;BME280;10032;51.386;12.516;2023-01-26T00:01:45;100977.22;;;2.75;100.00
19748;BME280;10032;51.386;12.516;2023-01-26T00:04:11;100980.56;;;2.77;100.00
19748;BME280;10032;51.386;12.516;2023-01-26T00:06:36;100978.56;;;2.71;100.00
19748;BME280;10032;51.386;12.516;2023-01-26T00:09:02;100968.16;;;2.76;100.00
19748;BME280;10032;51.386;12.516;2023-01-26T00:11:28;100969.84;;;2.77;100.00
19748;BME280;10032;51.386;12.516;2023-01-26T00:13:58;100960.53;;;2.73;100.00
19748;BME280;10032;51.386;12.516;2023-01-26T00:16:25;100957.19;;;2.71;100.00
19748;BME280;10032;51.386;12.516;2023-01-26T00:18:50;100955.69;;;2.69;100.00
19748;BME280;10032;51.386;12.516;2023-01-26T00:21:19;100957.25;;;2.63;100.00
19748;BME280;10032;51.386;12.516;2023-01-26T00:23:45;100948.09;;;2.58;100.00
19748;BME280;10032;51.386;12.516;2023-01-26T00:26:23;100938.41;;;2.57;100.00
19748;BME280;10032;51.386;12.516;2023-01-26T00:28:49;100945.25;;;2.59;100.00
19748;BME280;10032;51.386;12.516;2023-01-26T00:31:18;100944.06;;;2.62;100.00
19748;BME280;10032;51.386;12.516;2023-01-26T01:27:35;100922.19;;;2.36;100.00
19748;BME280;10032;51.386;12.516;2023-01-26T01:30:00;100925.22;;;2.33;100.00
19748;BME280;10032;51.386;12.516;2023-01-26T01:32:33;100921.72;;;2.32;100.00
19748;BME280;10032;51.386;12.516;2023-01-26T01:34:59;100922.56;;;2.33;100.00
19748;BME280;10032;51.386;12.516;2023-01-26T01:37:24;100914.00;;;2.37;100.00
19748;BME280;10032;51.386;12.516;2023-01-26T01:39:50;100914.03;;;2.29;100.00
19748;BME280;10032;51.386;12.516;2023-01-26T01:42:15;100917.94;;;2.27;100.00
19748;BME280;10032;51.386;12.516;2023-01-26T01:44:41;100917.94;;;2.27;100.00
19748;BME280;10032;51.386;12.516;2023-01-26T01:47:25;100908.06;;;2.27;100.00
19748;BME280;10032;51.386;12.516;2023-01-26T01:49:51;100906.31;;;2.34;100.00
19748;BME280;10032;51.386;12.516;2023-01-26T01:52:25;100900.66;;;2.29;100.00
19748;BME280;10032;51.386;12.516;2023-01-26T01:54:53;100898.53;;;2.25;100.00
19748;BME280;10032;51.386;12.516;2023-01-26T01:57:26;100892.00;;;2.27;100.00
19748;BME280;10032;51.386;12.516;2023-01-26T02:00:20;100892.38;;;2.24;100.00
19748;BME280;10032;51.386;12.516;2023-01-26T02:03:08;100879.72;;;2.18;100.00
19748;BME280;10032;51.386;12.516;2023-01-26T02:06:00;100876.56;;;2.15;100.00
19748;BME280;10032;51.386;12.516;2023-01-26T02:08:33;100877.09;;;2.10;100.00
19748;BME280;10032;51.386;12.516;2023-01-26T02:11:05;100877.28;;;2.09;100.00
19748;BME280;10032;51.386;12.516;2023-01-26T02:13:32;100873.50;;;2.03;100.00
19748;BME280;10032;51.386;12.516;2023-01-26T02:15:59;100866.47;;;2.02;100.00
19748;BME280;10032;51.386;12.516;2023-01-26T02:18:24;100866.13;;;2.05;100.00
19748;BME280;10032;51.386;12.516;2023-01-26T02:20:56;100860.44;;;2.08;100.00
19748;BME280;10032;51.386;12.516;2023-01-26T02:26:23;100864.16;;;1.99;100.00
19748;BME280;10032;51.386;12.516;2023-01-26T02:28:51;100857.84;;;1.92;100.00
19748;BME280;10032;51.386;12.516;2023-01-26T02:31:17;100859.16;;;1.96;100.00
19748;BME280;10032;51.386;12.516;2023-01-26T02:33:43;100850.44;;;2.02;100.00
19748;BME280;10032;51.386;12.516;2023-01-26T02:36:18;100856.16;;;1.99;100.00
19748;BME280;10032;51.386;12.516;2023-01-26T02:38:54;100848.47;;;1.96;100.00
19748;BME280;10032;51.386;12.516;2023-01-26T02:41:23;100848.47;;;1.96;100.00
19748;BME280;10032;51.386;12.516;2023-01-26T02:44:09;100844.16;;;1.95;100.00
19748;BME280;10032;51.386;12.516;2023-01-26T02:46:35;100841.53;;;1.87;100.00
19748;BME280;10032;51.386;12.516;2023-01-26T02:49:00;100843.19;;;1.88;100.00
19748;BME280;10032;51.386;12.516;2023-01-26T02:51:44;100833.41;;;1.81;100.00
19748;BME280;10032;51.386;12.516;2023-01-26T02:54:09;100840.72;;;1.79;100.00
19748;BME280;10032;51.386;12.516;2023-01-26T02:56:55;100829.16;;;1.86;100.00
19748;BME280;10032;51.386;12.516;2023-01-26T02:59:20;100826.31;;;1.88;100.00
19748;BME280;10032;51.386;12.516;2023-01-26T03:01:48;100830.66;;;1.89;100.00
19748;BME280;10032;51.386;12.516;2023-01-26T03:04:14;100824.66;;;1.87;100.00
19748;BME280;10032;51.386;12.516;2023-01-26T03:06:39;100821.81;;;1.88;100.00
19748;BME280;10032;51.386;12.516;2023-01-26T03:09:04;100826.81;;;1.91;100.00
19748;BME280;10032;51.386;12.516;2023-01-26T03:11:30;100830.16;;;1.93;100.00
19748;BME280;10032;51.386;12.516;2023-01-26T03:14:07;100819.75;;;1.98;100.00
19748;BME280;10032;51.386;12.516;2023-01-26T03:16:32;100817.09;;;1.98;100.00
19748;BME280;10032;51.386;12.516;2023-01-26T03:18:58;100823.63;;;1.96;100.00
19748;BME280;10032;51.386;12.516;2023-01-26T03:21:29;100811.75;;;1.98;100.00
19748;BME280;10032;51.386;12.516;2023-01-26T03:24:14;100811.78;;;1.90;100.00
19748;BME280;10032;51.386;12.516;2023-01-26T03:26:58;100808.81;;;1.85;100.00
19748;BME280;10032;51.386;12.516;2023-01-26T03:29:42;100805.09;;;1.94;100.00
19748;BME280;10032;51.386;12.516;2023-01-26T03:32:08;100800.47;;;1.88;100.00
19748;BME280;10032;51.386;12.516;2023-01-26T03:34:33;100798.81;;;1.87;100.00
19748;BME280;10032;51.386;12.516;2023-01-26T03:36:59;100800.50;;;1.80;100.00
19748;BME280;10032;51.386;12.516;2023-01-26T03:39:25;100797.59;;;1.67;100.00
19748;BME280;10032;51.386;12.516;2023-01-26T03:42:09;100799.28;;;1.60;100.00
19748;BME280;10032;51.386;12.516;2023-01-26T03:44:52;100802.34;;;1.49;100.00
19748;BME280;10032;51.386;12.516;2023-01-26T03:47:37;100796.59;;;1.38;100.00
19748;BME280;10032;51.386;12.516;2023-01-26T03:50:21;100792.31;;;1.29;100.00
19748;BME280;10032;51.386;12.516;2023-01-26T03:53:13;100801.16;;;1.29;100.00
19748;BME280;10032;51.386;12.516;2023-01-26T03:55:57;100793.66;;;1.25;100.00
19748;BME280;10032;51.386;12.516;2023-01-26T03:58:41;100803.31;;;1.26;100.00
19748;BME280;10032;51.386;12.516;2023-01-26T04:01:07;100806.84;;;1.18;100.00
19748;BME280;10032;51.386;12.516;2023-01-26T04:03:35;100806.38;;;1.15;100.00
19748;BME280;10032;51.386;12.516;2023-01-26T04:06:19;100807.75;;;1.11;100.00
19748;BME280;10032;51.386;12.516;2023-01-26T04:09:03;100809.91;;;1.07;100.00
19748;BME280;10032;51.386;12.516;2023-01-26T04:11:29;100802.91;;;1.06;100.00
19748;BME280;10032;51.386;12.516;2023-01-26T04:13:54;100809.41;;;1.12;100.00
19748;BME280;10032;51.386;12.516;2023-01-26T04:16:38;100809.88;;;1.15;100.00
19748;BME280;10032;51.386;12.516;2023-01-26T04:19:22;100810.88;;;1.14;100.00
19748;BME280;10032;51.386;12.516;2023-01-26T04:22:06;100806.91;;;1.10;100.00
19748;BME280;10032;51.386;12.516;2023-01-26T04:24:31;100800.56;;;1.11;100.00
19748;BME280;10032;51.386;12.516;2023-01-26T04:26:57;100799.59;;;1.04;100.00
19748;BME280;10032;51.386;12.516;2023-01-26T04:29:22;100784.28;;;0.98;100.00
19748;BME280;10032;51.386;12.516;2023-01-26T04:31:47;100794.59;;;1.01;100.00
19748;BME280;10032;51.386;12.516;2023-01-26T04:34:14;100798.59;;;1.05;100.00
19748;BME280;10032;51.386;12.516;2023-01-26T04:36:40;100795.59;;;1.08;100.00
19748;BME280;10032;51.386;12.516;2023-01-26T04:39:06;100794.03;;;1.14;100.00
19748;BME280;10032;51.386;12.516;2023-01-26T04:41:32;100795.53;;;1.16;100.00
19748;BME280;10032;51.386;12.516;2023-01-26T04:43:58;100786.34;;;1.19;100.00
19748;BME280;10032;51.386;12.516;2023-01-26T04:46:24;100792.56;;;1.11;100.00
19748;BME280;10032;51.386;12.516;2023-01-26T04:48:50;100793.88;;;1.15;100.00
19748;BME280;10032;51.386;12.516;2023-01-26T04:51:18;100800.22;;;1.14;100.00
19748;BME280;10032;51.386;12.516;2023-01-26T04:53:45;100800.22;;;1.14;100.00
19748;BME280;10032;51.386;12.516;2023-01-26T04:56:21;100792.22;;;1.14;100.00
19748;BME280;10032;51.386;12.516;2023-01-26T04:58:47;100793.34;;;1.20;100.00
19748;BME280;10032;51.386;12.516;2023-01-26T05:01:12;100804.84;;;1.20;100.00
19748;BME280;10032;51.386;12.516;2023-01-26T05:03:38;100794.88;;;1.14;100.00
19748;BME280;10032;51.386;12.516;2023-01-26T05:06:03;100794.03;;;1.14;100.00
19748;BME280;10032;51.386;12.516;2023-01-26T05:08:29;100796.53;;;1.15;100.00
19748;BME280;10032;51.386;12.516;2023-01-26T05:10:54;100793.72;;;1.17;100.00
19748;BME280;10032;51.386;12.516;2023-01-26T05:13:20;100777.88;;;1.15;100.00
19748;BME280;10032;51.386;12.516;2023-01-26T05:15:45;100782.19;;;1.16;100.00
19748;BME280;10032;51.386;12.516;2023-01-26T05:18:11;100800.56;;;1.11;100.00
19748;BME280;10032;51.386;12.516;2023-01-26T05:20:37;100797.72;;;1.13;100.00
19748;BME280;10032;51.386;12.516;2023-01-26T05:23:02;100799.84;;;1.17;100.00
19748;BME280;10032;51.386;12.516;2023-01-26T05:25:28;100789.88;;;1.11;100.00
19748;BME280;10032;51.386;12.516;2023-01-26T05:27:53;100798.91;;;1.10;100.00
19748;BME280;10032;51.386;12.516;2023-01-26T05:30:19;100796.22;;;1.10;100.00
19748;BME280;10032;51.386;12.516;2023-01-26T05:32:44;100787.53;;;1.16;100.00
19748;BME280;10032;51.386;12.516;2023-01-26T05:35:10;100793.72;;;1.17;100.00
19748;BME280;10032;51.386;12.516;2023-01-26T05:37:36;100789.00;;;1.27;100.00
19748;BME280;10032;51.386;12.516;2023-01-26T05:40:02;100794.97;;;1.29;100.00
19748;BME280;10032;51.386;12.516;2023-01-26T05:42:28;100793.78;;;1.31;100.00
19748;BME280;10032;51.386;12.516;2023-01-26T05:44:53;100796.09;;;1.34;100.00
19748;BME280;10032;51.386;12.516;2023-01-26T05:47:19;100804.78;;;1.36;100.00
19748;BME280;10032;51.386;12.516;2023-01-26T05:49:44;100799.78;;;1.33;100.00
19748;BME280;10032;51.386;12.516;2023-01-26T05:52:17;100805.47;;;1.30;100.00
19748;BME280;10032;51.386;12.516;2023-01-26T05:54:43;100796.09;;;1.34;100.00
19748;BME280;10032;51.386;12.516;2023-01-26T05:57:09;100804.78;;;1.36;100.00
19748;BME280;10032;51.386;12.516;2023-01-26T05:59:35;100802.44;;;1.33;100.00
19748;BME280;10032;51.386;12.516;2023-01-26T06:02:00;100798.66;;;1.28;100.00
19748;BME280;10032;51.386;12.516;2023-01-26T06:04:26;100798.13;;;1.32;100.00
19748;BME280;10032;51.386;12.516;2023-01-26T06:06:53;100798.78;;;1.34;100.00
19748;BME280;10032;51.386;12.516;2023-01-26T06:09:19;100798.44;;;1.37;100.00
19748;BME280;10032;51.386;12.516;2023-01-26T06:11:44;100800.25;;;1.37;100.00
19748;BME280;10032;51.386;12.516;2023-01-26T06:14:10;100798.13;;;1.32;100.00
19748;BME280;10032;51.386;12.516;2023-01-26T06:16:36;100794.09;;;1.36;100.00
19748;BME280;10032;51.386;12.516;2023-01-26T06:19:02;100793.09;;;1.37;100.00
19748;BME280;10032;51.386;12.516;2023-01-26T06:21:27;100799.59;;;1.43;100.00
19748;BME280;10032;51.386;12.516;2023-01-26T06:23:53;100798.75;;;1.42;100.00
19748;BME280;10032;51.386;12.516;2023-01-26T06:26:18;100800.09;;;1.38;100.00
19748;BME280;10032;51.386;12.516;2023-01-26T06:28:44;100797.09;;;1.41;100.00
19748;BME280;10032;51.386;12.516;2023-01-26T06:31:09;100791.38;;;1.44;100.00
19748;BME280;10032;51.386;12.516;2023-01-26T06:33:36;100805.72;;;1.51;100.00
19748;BME280;10032;51.386;12.516;2023-01-26T06:36:10;100803.38;;;1.48;100.00
19748;BME280;10032;51.386;12.516;2023-01-26T06:38:36;100797.69;;;1.51;100.00
19748;BME280;10032;51.386;12.516;2023-01-26T06:41:06;100806.03;;;1.48;100.00
19748;BME280;10032;51.386;12.516;2023-01-26T06:43:33;100804.69;;;1.52;100.00
19748;BME280;10032;51.386;12.516;2023-01-26T06:46:00;100805.34;;;1.54;100.00
19748;BME280;10032;51.386;12.516;2023-01-26T06:48:29;100805.16;;;1.56;100.00
19748;BME280;10032;51.386;12.516;2023-01-26T06:53:46;100811.34;;;1.56;100.00
19748;BME280;10032;51.386;12.516;2023-01-26T06:56:12;100812.16;;;1.57;100.00
19748;BME280;10032;51.386;12.516;2023-01-26T06:58:38;100806.50;;;1.60;100.00
19748;BME280;10032;51.386;12.516;2023-01-26T07:01:03;100805.16;;;1.56;100.00
19748;BME280;10032;51.386;12.516;2023-01-26T07:03:29;100813.34;;;1.54;100.00
19748;BME280;10032;51.386;12.516;2023-01-26T07:05:54;100814.19;;;1.55;100.00
19748;BME280;10032;51.386;12.516;2023-01-26T07:08:20;100810.03;;;1.52;100.00
19748;BME280;10032;51.386;12.516;2023-01-26T07:10:45;100816.19;;;1.53;100.00
19748;BME280;10032;51.386;12.516;2023-01-26T07:13:11;100821.72;;;1.51;100.00
19748;BME280;10032;51.386;12.516;2023-01-26T07:15:36;100813.50;;;1.53;100.00
19748;BME280;10032;51.386;12.516;2023-01-26T07:18:02;100810.03;;;1.52;100.00
19748;BME280;10032;51.386;12.516;2023-01-26T07:20:27;100810.97;;;1.59;100.00
19748;BME280;10032;51.386;12.516;2023-01-26T07:22:53;100815.69;;;1.57;100.00
19748;BME280;10032;51.386;12.516;2023-01-26T07:25:18;100812.63;;;1.60;100.00
19748;BME280;10032;51.386;12.516;2023-01-26T07:27:44;100810.94;;;1.67;100.00
19748;BME280;10032;51.386;12.516;2023-01-26T07:30:10;100801.56;;;1.71;100.00
19748;BME280;10032;51.386;12.516;2023-01-26T07:32:38;100789.22;;;1.70;100.00
19748;BME280;10032;51.386;12.516;2023-01-26T07:35:05;100792.97;;;1.61;100.00
19748;BME280;10032;51.386;12.516;2023-01-26T07:37:30;100795.44;;;1.63;100.00
19748;BME280;10032;51.386;12.516;2023-01-26T07:39:56;100790.34;;;1.53;100.00
19748;BME280;10032;51.386;12.516;2023-01-26T07:42:21;100787.66;;;1.53;100.00
19748;BME280;10032;51.386;12.516;2023-01-26T07:44:47;100783.97;;;1.54;100.00
19748;BME280;10032;51.386;12.516;2023-01-26T07:47:12;100784.66;;;1.56;100.00
19748;BME280;10032;51.386;12.516;2023-01-26T07:49:39;100787.84;;;1.52;100.00
19748;BME280;10032;51.386;12.516;2023-01-26T07:52:05;100786.19;;;1.51;100.00
19748;BME280;10032;51.386;12.516;2023-01-26T07:54:30;100781.47;;;1.53;100.00
19748;BME280;10032;51.386;12.516;2023-01-26T07:56:56;100786.31;;;1.57;100.00
19748;BME280;10032;51.386;12.516;2023-01-26T07:59:22;100786.19;;;1.51;100.00
19748;BME280;10032;51.386;12.516;2023-01-26T08:01:48;100785.69;;;1.47;100.00
19748;BME280;10032;51.386;12.516;2023-01-26T08:04:14;100789.38;;;1.46;100.00
19748;BME280;10032;51.386;12.516;2023-01-26T08:06:40;100790.56;;;1.44;100.00
19748;BME280;10032;51.386;12.516;2023-01-26T08:09:05;100795.91;;;1.44;100.00
19748;BME280;10032;51.386;12.516;2023-01-26T08:11:30;100792.09;;;1.38;100.00
19748;BME280;10032;51.386;12.516;2023-01-26T08:13:56;100793.09;;;1.37;100.00
19748;BME280;10032;51.386;12.516;2023-01-26T08:16:21;100792.44;;;1.35;100.00
19748;BME280;10032;51.386;12.516;2023-01-26T08:18:47;100797.91;;;1.42;100.00
19748;BME280;10032;51.386;12.516;2023-01-26T08:21:14;100798.03;;;1.48;100.00
19748;BME280;10032;51.386;12.516;2023-01-26T08:23:39;100800.53;;;1.50;100.00
19748;BME280;10032;51.386;12.516;2023-01-26T08:26:12;100799.69;;;1.49;100.00
19748;BME280;10032;51.386;12.516;2023-01-26T08:28:38;100806.22;;;1.47;100.00
19748;BME280;10032;51.386;12.516;2023-01-26T08:31:15;100798.03;;;1.48;100.00
19748;BME280;10032;51.386;12.516;2023-01-26T08:33:46;100796.38;;;1.47;100.00
19748;BME280;10032;51.386;12.516;2023-01-26T08:36:13;100802.41;;;1.41;100.00
19748;BME280;10032;51.386;12.516;2023-01-26T08:38:39;100814.09;;;1.40;100.00
19748;BME280;10032;51.386;12.516;2023-01-26T08:41:05;100815.22;;;1.46;100.00
19748;BME280;10032;51.386;12.516;2023-01-26T08:43:31;100812.41;;;1.39;100.00
19748;BME280;10032;51.386;12.516;2023-01-26T08:45:57;100808.56;;;1.42;100.00
19748;BME280;10032;51.386;12.516;2023-01-26T08:48:23;100811.78;;;1.37;100.00
19748;BME280;10032;51.386;12.516;2023-01-26T08:50:53;100808.09;;;1.38;100.00
19748;BME280;10032;51.386;12.516;2023-01-26T08:53:19;100807.75;;;1.41;100.00
19748;BME280;10032;51.386;12.516;2023-01-26T08:55:44;100810.94;;;1.37;100.00
19748;BME280;10032;51.386;12.516;2023-01-26T08:58:09;100821.25;;;1.48;100.00
19748;BME280;10032;51.386;12.516;2023-01-26T09:00:35;100831.41;;;1.44;100.00
19748;BME280;10032;51.386;12.516;2023-01-26T09:03:03;100825.91;;;1.46;100.00
19748;BME280;10032;51.386;12.516;2023-01-26T09:05:34;100829.44;;;1.46;100.00
19748;BME280;10032;51.386;12.516;2023-01-26T09:07:59;100829.13;;;1.41;100.00
19748;BME280;10032;51.386;12.516;2023-01-26T09:10:25;100818.78;;;1.38;100.00
19748;BME280;10032;51.386;12.516;2023-01-26T09:12:50;100831.53;;;1.20;100.00
19748;BME280;10032;51.386;12.516;2023-01-26T09:15:16;100833.84;;;1.23;100.00
19748;BME280;10032;51.386;12.516;2023-01-26T09:17:41;100838.56;;;1.13;100.00
19748;BME280;10032;51.386;12.516;2023-01-26T09:20:08;100836.88;;;1.12;100.00
19748;BME280;10032;51.386;12.516;2023-01-26T09:22:34;100827.72;;;1.15;100.00
19748;BME280;10032;51.386;12.516;2023-01-26T09:25:00;100827.22;;;1.11;100.00
19748;BME280;10032;51.386;12.516;2023-01-26T09:27:26;100830.91;;;1.10;100.00
19748;BME280;10032;51.386;12.516;2023-01-26T09:29:51;100830.25;;;1.08;100.00
19748;BME280;10032;51.386;12.516;2023-01-26T09:32:18;100834.59;;;1.01;100.00
19748;BME280;10032;51.386;12.516;2023-01-26T09:34:44;100835.75;;;1.07;100.00
19748;BME280;10032;51.386;12.516;2023-01-26T09:37:09;100835.41;;;1.10;100.00
19748;BME280;10032;51.386;12.516;2023-01-26T09:39:35;100841.09;;;1.07;100.00
19748;BME280;10032;51.386;12.516;2023-01-26T09:42:06;100843.91;;;1.13;100.00
19748;BME280;10032;51.386;12.516;2023-01-26T09:44:50;100846.06;;;1.10;100.00
19748;BME280;10032;51.386;12.516;2023-01-26T09:52:28;100836.06;;;1.12;100.00
19748;BME280;10032;51.386;12.516;2023-01-26T09:54:57;100842.75;;;1.00;100.00
19748;BME280;10032;51.386;12.516;2023-01-26T10:00:20;100819.91;;;1.05;100.00
19748;BME280;10032;51.386;12.516;2023-01-26T10:08:29;100809.22;;;1.13;100.00
19748;BME280;10032;51.386;12.516;2023-01-26T10:11:01;100805.34;;;1.16;100.00
19748;BME280;10032;51.386;12.516;2023-01-26T10:13:29;100812.38;;;1.17;100.00
19748;BME280;10032;51.386;12.516;2023-01-26T10:16:00;100813.88;;;1.19;100.00
19748;BME280;10032;51.386;12.516;2023-01-26T10:18:36;100813.19;;;1.17;100.00
19748;BME280;10032;51.386;12.516;2023-01-26T10:21:05;100812.53;;;1.15;100.00
19748;BME280;10032;51.386;12.516;2023-01-26T10:23:33;100816.03;;;1.16;100.00
19748;BME280;10032;51.386;12.516;2023-01-26T10:26:16;100809.84;;;1.23;100.00
19748;BME280;10032;51.386;12.516;2023-01-26T10:28:43;100814.84;;;1.26;100.00
19748;BME280;10032;51.386;12.516;2023-01-26T10:31:21;100807.97;;;1.32;100.00
19748;BME280;10032;51.386;12.516;2023-01-26T10:33:57;100810.81;;;1.30;100.00
19748;BME280;10032;51.386;12.516;2023-01-26T10:36:23;100823.69;;;1.27;100.00
19748;BME280;10032;51.386;12.516;2023-01-26T10:38:49;100810.84;;;1.22;100.00
19748;BME280;10032;51.386;12.516;2023-01-26T10:44:01;100807.00;;;1.25;100.00
19748;BME280;10032;51.386;12.516;2023-01-26T10:46:37;100798.81;;;1.26;100.00
19748;BME280;10032;51.386;12.516;2023-01-26T10:49:15;100792.13;;;1.30;100.00
19748;BME280;10032;51.386;12.516;2023-01-26T10:51:43;100794.09;;;1.36;100.00
19748;BME280;10032;51.386;12.516;2023-01-26T10:54:26;100795.75;;;1.37;100.00
19748;BME280;10032;51.386;12.516;2023-01-26T10:56:59;100785.06;;;1.45;100.00
19748;BME280;10032;51.386;12.516;2023-01-26T11:07:36;100779.13;;;1.27;100.00
19748;BME280;10032;51.386;12.516;2023-01-26T11:10:27;100779.28;;;1.34;100.00
19748;BME280;10032;51.386;12.516;2023-01-26T11:13:13;100773.56;;;1.37;100.00
19748;BME280;10032;51.386;12.516;2023-01-26T11:15:43;100766.25;;;1.39;100.00
19748;BME280;10032;51.386;12.516;2023-01-26T11:18:40;100761.53;;;1.41;100.00
19748;BME280;10032;51.386;12.516;2023-01-26T11:21:15;100764.00;;;1.50;100.00
19748;BME280;10032;51.386;12.516;2023-01-26T11:36:51;100759.66;;;1.49;100.00
19748;BME280;10032;51.386;12.516;2023-01-26T11:39:33;100757.13;;;1.56;100.00
19748;BME280;10032;51.386;12.516;2023-01-26T11:42:12;100737.78;;;1.54;100.00
19748;BME280;10032;51.386;12.516;2023-01-26T11:50:43;100743.28;;;1.52;100.00
19748;BME280;10032;51.386;12.516;2023-01-26T11:55:53;100728.59;;;1.56;100.00
19748;BME280;10032;51.386;12.516;2023-01-26T11:58:30;100725.25;;;1.54;100.00
19748;BME280;10032;51.386;12.516;2023-01-26T12:01:00;100730.66;;;1.46;100.00
19748;BME280;10032;51.386;12.516;2023-01-26T12:03:32;100743.22;;;1.38;100.00
19748;BME280;10032;51.386;12.516;2023-01-26T12:06:03;100736.72;;;1.40;100.00
19748;BME280;10032;51.386;12.516;2023-01-26T12:12:20;100728.03;;;1.38;100.00
19748;BME280;10032;51.386;12.516;2023-01-26T12:17:35;100709.41;;;1.30;100.00
19748;BME280;10032;51.386;12.516;2023-01-26T12:20:22;100708.63;;;1.22;100.00
19748;BME280;10032;51.386;12.516;2023-01-26T12:22:54;100701.44;;;1.22;100.00
19748;BME280;10032;51.386;12.516;2023-01-26T12:30:30;100698.47;;;1.17;100.00
19748;BME280;10032;51.386;12.516;2023-01-26T12:32:58;100693.50;;;1.14;100.00
19748;BME280;10032;51.386;12.516;2023-01-26T12:41:30;100680.28;;;1.21;100.00
19748;BME280;10032;51.386;12.516;2023-01-26T12:46:38;100687.88;;;1.09;100.00
19748;BME280;10032;51.386;12.516;2023-01-26T12:51:48;100687.28;;;0.91;100.00
19748;BME280;10032;51.386;12.516;2023-01-26T12:54:22;100690.63;;;0.93;100.00
19748;BME280;10032;51.386;12.516;2023-01-26T12:56:54;100690.44;;;0.95;100.00
19748;BME280;10032;51.386;12.516;2023-01-26T12:59:33;100682.31;;;0.88;100.00
19748;BME280;10032;51.386;12.516;2023-01-26T13:04:36;100683.97;;;0.89;100.00
19748;BME280;10032;51.386;12.516;2023-01-26T13:07:03;100682.25;;;0.96;100.00
19748;BME280;10032;51.386;12.516;2023-01-26T13:15:31;100690.25;;;0.96;100.00
19748;BME280;10032;51.386;12.516;2023-01-26T13:18:00;100686.25;;;1.00;100.00
19748;BME280;10032;51.386;12.516;2023-01-26T13:20:48;100685.72;;;1.05;100.00
19748;BME280;10032;51.386;12.516;2023-01-26T13:23:37;100688.38;;;1.05;100.00
19748;BME280;10032;51.386;12.516;2023-01-26T13:26:40;100690.88;;;1.06;100.00
19748;BME280;10032;51.386;12.516;2023-01-26T13:31:55;100689.22;;;1.05;100.00
19748;BME280;10032;51.386;12.516;2023-01-26T13:34:26;100695.41;;;1.06;100.00
19748;BME280;10032;51.386;12.516;2023-01-26T13:36:55;100693.22;;;1.01;100.00
19748;BME280;10032;51.386;12.516;2023-01-26T13:39:30;100694.88;;;1.02;100.00
19748;BME280;10032;51.386;12.516;2023-01-26T13:41:56;100694.78;;;0.96;100.00
19748;BME280;10032;51.386;12.516;2023-01-26T13:44:45;100684.94;;;0.96;100.00
19748;BME280;10032;51.386;12.516;2023-01-26T13:47:18;100681.25;;;0.97;100.00
19748;BME280;10032;51.386;12.516;2023-01-26T13:49:46;100683.56;;;1.00;100.00
19748;BME280;10032;51.386;12.516;2023-01-26T13:54:46;100694.88;;;1.02;100.00
19748;BME280;10032;51.386;12.516;2023-01-26T13:57:23;100694.00;;;1.10;100.00
19748;BME280;10032;51.386;12.516;2023-01-26T13:59:52;100694.16;;;1.16;100.00
19748;BME280;10032;51.386;12.516;2023-01-26T14:02:32;100692.13;;;1.18;100.00
19748;BME280;10032;51.386;12.516;2023-01-26T14:04:59;100695.63;;;1.19;100.00
19748;BME280;10032;51.386;12.516;2023-01-26T14:07:29;100685.41;;;1.00;100.00
19748;BME280;10032;51.386;12.516;2023-01-26T14:09:58;100695.59;;;0.96;100.00
19748;BME280;10032;51.386;12.516;2023-01-26T14:12:34;100682.97;;;0.90;100.00
19748;BME280;10032;51.386;12.516;2023-01-26T14:15:05;100694.50;;;0.83;100.00
19748;BME280;10032;51.386;12.516;2023-01-26T14:17:33;100693.38;;;0.77;100.00
19748;BME280;10032;51.386;12.516;2023-01-26T14:20:06;100694.56;;;0.75;100.00
19748;BME280;10032;51.386;12.516;2023-01-26T14:22:41;100693.06;;;0.72;100.00
19748;BME280;10032;51.386;12.516;2023-01-26T14:25:09;100708.38;;;0.70;100.00
19748;BME280;10032;51.386;12.516;2023-01-26T14:27:39;100697.91;;;0.69;100.00
19748;BME280;10032;51.386;12.516;2023-01-26T14:30:27;100702.72;;;0.65;100.00
19748;BME280;10032;51.386;12.516;2023-01-26T14:33:13;100703.56;;;0.66;100.00
19748;BME280;10032;51.386;12.516;2023-01-26T14:35:40;100695.72;;;0.72;100.00
19748;BME280;10032;51.386;12.516;2023-01-26T14:38:15;100702.72;;;0.73;100.00
19748;BME280;10032;51.386;12.516;2023-01-26T14:40:52;100698.38;;;0.72;100.00
19748;BME280;10032;51.386;12.516;2023-01-26T14:43:18;100697.22;;;0.75;100.00
19748;BME280;10032;51.386;12.516;2023-01-26T14:46:01;100704.03;;;0.77;100.00
19748;BME280;10032;51.386;12.516;2023-01-26T14:48:36;100710.84;;;0.80;100.00
19748;BME280;10032;51.386;12.516;2023-01-26T14:51:05;100714.50;;;0.79;100.00
19748;BME280;10032;51.386;12.516;2023-01-26T14:53:32;100705.84;;;0.77;100.00
19748;BME280;10032;51.386;12.516;2023-01-26T14:55:57;100715.00;;;0.82;100.00
19748;BME280;10032;51.386;12.516;2023-01-26T14:58:31;100710.97;;;0.86;100.00
19748;BME280;10032;51.386;12.516;2023-01-26T15:00:58;100702.84;;;0.80;100.00
19748;BME280;10032;51.386;12.516;2023-01-26T15:03:25;100705.53;;;0.80;100.00
19748;BME280;10032;51.386;12.516;2023-01-26T15:08:41;100709.31;;;0.85;100.00
19748;BME280;10032;51.386;12.516;2023-01-26T15:11:31;100715.00;;;0.82;100.00
19748;BME280;10032;51.386;12.516;2023-01-26T15:14:31;100715.34;;;0.79;100.00
19748;BME280;10032;51.386;12.516;2023-01-26T15:16:57;100702.00;;;0.79;100.00
19748;BME280;10032;51.386;12.516;2023-01-26T15:19:23;100702.97;;;0.86;100.00
19748;BME280;10032;51.386;12.516;2023-01-26T15:21:50;100704.66;;;0.87;100.00